createdAt,value
2023-02-28T00:01:31.514Z,100453.27
2023-02-28T00:04:00.056Z,100454.16
2023-02-28T00:06:28.412Z,100451.73
2023-02-28T00:08:56.734Z,100454.16
2023-02-28T00:11:24.679Z,100452.63
2023-02-28T00:13:52.728Z,100451.27
2023-02-28T00:16:23.217Z,100450.78
2023-02-28T00:18:51.966Z,100454.61
2023-02-28T00:21:20.971Z,100455.15
2023-02-28T00:23:49.288Z,100454.80
2023-02-28T00:26:17.361Z,100448.77
2023-02-28T00:28:46.548Z,100447.26
2023-02-28T00:31:14.614Z,100447.81
2023-02-28T00:33:42.726Z,100447.79
2023-02-28T00:36:12.332Z,100445.89
2023-02-28T00:38:41.719Z,100443.48
2023-02-28T00:41:10.299Z,100444.36
2023-02-28T00:43:40.232Z,100445.26
2023-02-28T00:46:09.054Z,100441.97
2023-02-28T00:48:37.837Z,100438.34
2023-02-28T00:51:06.180Z,100441.80
2023-02-28T00:53:34.473Z,100439.03
2023-02-28T00:56:02.769Z,100438.52
2023-02-28T00:58:31.488Z,100443.91
2023-02-28T01:00:59.444Z,100442.03
2023-02-28T01:03:27.337Z,100440.30
2023-02-28T01:05:55.497Z,100442.58
2023-02-28T01:08:23.547Z,100442.91
2023-02-28T01:10:52.537Z,100439.81
2023-02-28T01:13:21.102Z,100436.21
2023-02-28T01:15:55.422Z,100434.50
2023-02-28T01:18:23.952Z,100436.58
2023-02-28T01:20:53.488Z,100437.29
2023-02-28T01:23:24.257Z,100432.29
2023-02-28T01:25:52.600Z,100427.80
2023-02-28T01:28:21.256Z,100432.12
2023-02-28T01:30:50.969Z,100432.48
2023-02-28T01:33:18.982Z,100434.58
2023-02-28T01:35:47.161Z,100430.61
2023-02-28T01:38:22.064Z,100432.88
2023-02-28T01:40:52.028Z,100431.87
2023-02-28T01:43:46.047Z,100433.94
2023-02-28T01:46:14.803Z,100432.58
2023-02-28T01:48:51.171Z,100431.88
2023-02-28T01:51:25.914Z,100434.61
2023-02-28T01:53:59.121Z,100437.39
2023-02-28T01:56:31.630Z,100433.77
2023-02-28T01:58:59.762Z,100430.69
2023-02-28T02:01:29.168Z,100432.06
2023-02-28T02:04:02.291Z,100435.52
2023-02-28T02:06:43.780Z,100436.74
2023-02-28T02:09:13.222Z,100435.37
2023-02-28T02:11:44.710Z,100437.98
2023-02-28T02:14:37.733Z,100434.17
2023-02-28T02:17:42.981Z,100434.34
2023-02-28T02:20:29.889Z,100429.83
2023-02-28T02:23:32.979Z,100433.80
2023-02-28T02:26:34.823Z,100427.22
2023-02-28T02:29:32.100Z,100428.27
2023-02-28T02:32:12.253Z,100421.00
2023-02-28T02:35:15.028Z,100426.55
2023-02-28T02:37:45.708Z,100426.02
2023-02-28T02:40:15.742Z,100425.32
2023-02-28T02:42:52.806Z,100425.66
2023-02-28T02:45:28.925Z,100425.67
2023-02-28T02:48:01.057Z,100425.49
2023-02-28T02:50:38.317Z,100426.38
2023-02-28T02:53:09.576Z,100426.04
2023-02-28T02:55:42.374Z,100422.41
2023-02-28T02:58:19.792Z,100419.48
2023-02-28T03:00:54.143Z,100421.20
2023-02-28T03:03:29.827Z,100421.55
2023-02-28T03:06:00.374Z,100422.60
2023-02-28T03:08:34.298Z,100420.36
2023-02-28T03:11:05.617Z,100423.99
2023-02-28T03:13:51.867Z,100425.04
2023-02-28T03:16:50.973Z,100423.45
2023-02-28T03:19:37.746Z,100425.86
2023-02-28T03:22:20.958Z,100424.30
2023-02-28T03:25:06.239Z,100427.05
2023-02-28T03:28:02.900Z,100428.45
2023-02-28T03:30:55.006Z,100428.10
2023-02-28T03:33:36.828Z,100429.15
2023-02-28T03:36:14.657Z,100433.14
2023-02-28T03:38:51.070Z,100436.09
2023-02-28T03:41:33.997Z,100434.36
2023-02-28T03:44:16.430Z,100434.16
2023-02-28T03:46:52.567Z,100438.86
2023-02-28T03:49:25.901Z,100439.57
2023-02-28T03:51:57.030Z,100437.32
2023-02-28T03:54:33.513Z,100440.80
2023-02-28T03:57:14.021Z,100440.48
2023-02-28T03:59:47.334Z,100441.20
2023-02-28T04:02:15.536Z,100441.73
2023-02-28T04:04:49.643Z,100442.75
2023-02-28T04:07:18.417Z,100446.54
2023-02-28T04:09:46.327Z,100447.40
2023-02-28T04:12:14.280Z,100447.57
2023-02-28T04:14:42.132Z,100447.23
2023-02-28T04:17:09.950Z,100446.20
2023-02-28T04:19:37.864Z,100446.71
2023-02-28T04:22:05.731Z,100450.16
2023-02-28T04:24:33.603Z,100450.85
2023-02-28T04:27:01.655Z,100452.58
2023-02-28T04:29:33.295Z,100451.52
2023-02-28T04:32:02.378Z,100453.43
2023-02-28T04:34:32.426Z,100450.30
2023-02-28T04:37:17.056Z,100454.71
2023-02-28T04:39:45.237Z,100459.88
2023-02-28T04:42:13.596Z,100457.26
2023-02-28T04:44:41.815Z,100457.75
2023-02-28T04:47:10.029Z,100459.48
2023-02-28T04:49:38.051Z,100463.98
2023-02-28T04:52:06.149Z,100464.81
2023-02-28T04:54:34.080Z,100463.94
2023-02-28T04:57:02.576Z,100467.55
2023-02-28T04:59:30.445Z,100469.61
2023-02-28T05:01:58.409Z,100467.35
2023-02-28T05:04:26.625Z,100464.73
2023-02-28T05:06:54.593Z,100462.30
2023-02-28T05:09:22.634Z,100460.56
2023-02-28T05:11:50.502Z,100461.95
2023-02-28T05:14:18.448Z,100462.97
2023-02-28T05:16:46.412Z,100460.55
2023-02-28T05:19:14.497Z,100458.83
2023-02-28T05:21:51.558Z,100464.90
2023-02-28T05:24:25.895Z,100468.69
2023-02-28T05:26:55.686Z,100471.62
2023-02-28T05:29:23.913Z,100470.73
2023-02-28T05:31:52.036Z,100471.08
2023-02-28T05:34:20.049Z,100472.09
2023-02-28T05:36:47.986Z,100477.10
2023-02-28T05:39:16.007Z,100479.52
2023-02-28T05:41:44.668Z,100480.77
2023-02-28T05:44:13.518Z,100480.75
2023-02-28T05:46:41.702Z,100478.46
2023-02-28T05:49:09.947Z,100482.63
2023-02-28T05:51:40.758Z,100486.66
2023-02-28T05:54:09.296Z,100489.29
2023-02-28T05:56:40.069Z,100493.51
2023-02-28T05:59:08.101Z,100497.70
2023-02-28T06:01:41.777Z,100498.58
2023-02-28T06:04:22.301Z,100500.30
2023-02-28T06:06:58.700Z,100502.37
2023-02-28T06:09:26.777Z,100502.92
2023-02-28T06:11:55.190Z,100502.58
2023-02-28T06:14:23.030Z,100504.14
2023-02-28T06:16:51.411Z,100510.94
2023-02-28T06:19:19.454Z,100511.14
2023-02-28T06:21:50.280Z,100513.22
2023-02-28T06:24:18.208Z,100517.23
2023-02-28T06:26:46.323Z,100517.30
2023-02-28T06:29:18.054Z,100522.73
2023-02-28T06:31:47.283Z,100527.98
2023-02-28T06:34:15.913Z,100532.85
2023-02-28T06:36:44.647Z,100535.11
2023-02-28T06:39:12.602Z,100537.75
2023-02-28T06:41:54.009Z,100545.23
2023-02-28T06:44:24.372Z,100544.60
2023-02-28T06:46:52.590Z,100545.15
2023-02-28T06:49:20.571Z,100545.02
2023-02-28T06:51:48.473Z,100547.65
2023-02-28T06:54:16.449Z,100545.77
2023-02-28T06:56:44.681Z,100547.55
2023-02-28T06:59:12.597Z,100550.54
2023-02-28T07:01:41.137Z,100547.62
2023-02-28T07:04:09.259Z,100546.43
2023-02-28T07:06:37.126Z,100552.01
2023-02-28T07:09:05.201Z,100552.91
2023-02-28T07:11:33.453Z,100557.10
2023-02-28T07:14:01.376Z,100553.33
2023-02-28T07:16:29.284Z,100549.91
2023-02-28T07:18:57.228Z,100553.08
2023-02-28T07:21:25.830Z,100552.27
2023-02-28T07:23:53.774Z,100552.64
2023-02-28T07:26:22.337Z,100555.27
2023-02-28T07:28:50.598Z,100554.08
2023-02-28T07:31:19.568Z,100559.84
2023-02-28T07:33:47.719Z,100561.77
2023-02-28T07:36:19.473Z,100559.70
2023-02-28T07:38:51.683Z,100561.80
2023-02-28T07:41:22.255Z,100559.02
2023-02-28T07:43:50.520Z,100564.23
2023-02-28T07:46:19.452Z,100564.08
2023-02-28T07:48:47.419Z,100565.98
2023-02-28T07:51:15.653Z,100566.33
2023-02-28T07:53:43.593Z,100565.45
2023-02-28T07:56:11.835Z,100563.70
2023-02-28T07:58:39.782Z,100565.60
2023-02-28T08:01:09.795Z,100561.08
2023-02-28T08:03:39.627Z,100561.23
2023-02-28T08:06:15.714Z,100562.45
2023-02-28T08:08:43.587Z,100561.20
2023-02-28T08:11:11.464Z,100565.55
2023-02-28T08:13:39.517Z,100565.37
2023-02-28T08:16:07.586Z,100560.98
2023-02-28T08:18:35.750Z,100561.14
2023-02-28T08:21:11.106Z,100560.95
2023-02-28T08:23:39.644Z,100561.80
2023-02-28T08:26:07.528Z,100561.94
2023-02-28T08:28:35.500Z,100558.60
2023-02-28T08:31:08.522Z,100559.99
2023-02-28T08:33:37.204Z,100560.88
2023-02-28T08:36:05.895Z,100558.98
2023-02-28T08:38:33.744Z,100561.97
2023-02-28T08:41:04.554Z,100564.08
2023-02-28T08:43:32.527Z,100567.20
2023-02-28T08:46:00.585Z,100564.04
2023-02-28T08:48:30.217Z,100563.30
2023-02-28T08:51:08.586Z,100563.30
2023-02-28T08:53:38.262Z,100566.77
2023-02-28T08:56:08.831Z,100567.44
2023-02-28T08:58:36.928Z,100566.38
2023-02-28T09:01:13.514Z,100565.69
2023-02-28T09:03:42.854Z,100566.23
2023-02-28T09:06:12.391Z,100563.39
2023-02-28T09:08:41.183Z,100559.00
2023-02-28T09:11:09.880Z,100563.53
2023-02-28T09:13:38.997Z,100563.23
2023-02-28T09:16:08.967Z,100565.13
2023-02-28T09:18:38.526Z,100568.76
2023-02-28T09:21:08.261Z,100565.62
2023-02-28T09:23:38.956Z,100563.67
2023-02-28T09:26:07.365Z,100559.65
2023-02-28T09:28:35.304Z,100561.03
2023-02-28T09:31:05.643Z,100560.81
2023-02-28T09:33:35.295Z,100556.08
2023-02-28T09:36:04.803Z,100550.87
2023-02-28T09:38:32.805Z,100548.79
2023-02-28T09:41:04.711Z,100550.15
2023-02-28T09:43:41.201Z,100548.36
2023-02-28T09:46:27.629Z,100547.25
2023-02-28T09:48:57.002Z,100549.11
2023-02-28T09:51:43.496Z,100546.42
2023-02-28T09:54:20.680Z,100548.27
2023-02-28T09:56:55.207Z,100549.80
2023-02-28T09:59:47.316Z,100552.45
2023-02-28T10:02:53.775Z,100556.71
2023-02-28T10:05:28.051Z,100551.74
2023-02-28T10:08:17.346Z,100546.19
2023-02-28T10:10:49.973Z,100545.65
2023-02-28T10:13:35.593Z,100549.23
2023-02-28T10:16:11.131Z,100551.23
2023-02-28T10:18:49.912Z,100552.82
2023-02-28T10:21:36.420Z,100552.85
2023-02-28T10:24:29.490Z,100550.96
2023-02-28T10:27:02.103Z,100552.53
2023-02-28T10:29:33.783Z,100549.73
2023-02-28T10:32:04.486Z,100552.18
2023-02-28T10:34:32.443Z,100547.92
2023-02-28T10:37:10.501Z,100545.45
2023-02-28T10:39:45.046Z,100538.63
2023-02-28T10:42:42.189Z,100541.56
2023-02-28T10:45:18.493Z,100536.79
2023-02-28T10:48:03.765Z,100532.74
2023-02-28T10:50:40.171Z,100533.54
2023-02-28T10:53:36.055Z,100535.07
2023-02-28T10:56:09.603Z,100529.14
2023-02-28T10:59:01.581Z,100529.63
2023-02-28T11:01:40.752Z,100532.37
2023-02-28T11:04:19.191Z,100535.44
2023-02-28T11:06:47.506Z,100532.93
2023-02-28T11:09:30.070Z,100526.41
2023-02-28T11:11:58.365Z,100525.34
2023-02-28T11:14:35.211Z,100517.08
2023-02-28T11:17:21.622Z,100524.20
2023-02-28T11:19:54.228Z,100523.48
2023-02-28T11:22:29.850Z,100522.64
2023-02-28T11:25:02.568Z,100519.09
2023-02-28T11:27:34.801Z,100516.73
2023-02-28T11:30:02.944Z,100513.05
2023-02-28T11:32:32.239Z,100512.23
2023-02-28T11:35:12.147Z,100509.48
2023-02-28T11:37:41.907Z,100509.01
2023-02-28T11:40:18.220Z,100507.08
2023-02-28T11:43:07.567Z,100501.45
2023-02-28T11:45:57.643Z,100505.08
2023-02-28T11:48:36.439Z,100506.45
2023-02-28T11:51:22.878Z,100506.83
2023-02-28T11:53:50.753Z,100507.83
2023-02-28T11:56:31.163Z,100506.91
2023-02-28T11:59:37.535Z,100508.02
2023-02-28T12:02:17.557Z,100504.55
2023-02-28T12:05:13.022Z,100497.77
2023-02-28T12:08:09.539Z,100495.09
2023-02-28T12:10:58.395Z,100489.84
2023-02-28T12:13:54.375Z,100486.41
2023-02-28T12:16:28.908Z,100484.25
2023-02-28T12:19:12.382Z,100483.14
2023-02-28T12:22:01.324Z,100482.58
2023-02-28T12:24:44.187Z,100479.63
2023-02-28T12:27:20.238Z,100477.28
2023-02-28T12:30:15.971Z,100472.37
2023-02-28T12:32:49.058Z,100472.11
2023-02-28T12:35:23.045Z,100471.38
2023-02-28T12:38:20.504Z,100466.54
2023-02-28T12:40:55.880Z,100464.42
2023-02-28T12:43:31.994Z,100466.87
2023-02-28T12:46:08.664Z,100462.73
2023-02-28T12:48:49.485Z,100456.75
2023-02-28T12:51:18.585Z,100452.61
2023-02-28T12:54:11.158Z,100452.09
2023-02-28T12:56:55.330Z,100452.23
2023-02-28T12:59:46.605Z,100453.96
2023-02-28T13:02:29.742Z,100454.13
2023-02-28T13:05:06.668Z,100452.66
2023-02-28T13:07:59.462Z,100451.97
2023-02-28T13:10:41.195Z,100448.80
2023-02-28T13:13:16.246Z,100449.31
2023-02-28T13:15:58.431Z,100446.59
2023-02-28T13:19:08.895Z,100444.27
2023-02-28T13:21:45.544Z,100446.04
2023-02-28T13:24:33.388Z,100446.98
2023-02-28T13:27:01.174Z,100443.85
2023-02-28T13:29:35.185Z,100441.48
2023-02-28T13:32:09.514Z,100442.09
2023-02-28T13:34:40.796Z,100443.54
2023-02-28T13:37:21.031Z,100445.22
2023-02-28T13:39:50.116Z,100444.59
2023-02-28T13:42:35.327Z,100444.46
2023-02-28T13:45:03.779Z,100440.30
2023-02-28T13:47:47.987Z,100435.25
2023-02-28T13:50:38.514Z,100433.20
2023-02-28T13:53:31.290Z,100424.56
2023-02-28T13:55:59.236Z,100426.36
2023-02-28T13:58:44.249Z,100427.79
2023-02-28T14:01:12.099Z,100428.45
2023-02-28T14:04:07.479Z,100423.44
2023-02-28T14:06:37.979Z,100423.98
2023-02-28T14:09:29.923Z,100416.70
2023-02-28T14:11:58.744Z,100420.02
2023-02-28T14:14:47.025Z,100418.72
2023-02-28T14:17:17.662Z,100415.49
2023-02-28T14:19:51.028Z,100413.17
2023-02-28T14:22:38.092Z,100412.85
2023-02-28T14:25:32.092Z,100407.73
2023-02-28T14:28:31.074Z,100408.11
2023-02-28T14:31:08.707Z,100404.61
2023-02-28T14:33:44.543Z,100402.73
2023-02-28T14:36:27.962Z,100402.98
2023-02-28T14:38:58.949Z,100398.15
2023-02-28T14:41:38.011Z,100393.55
2023-02-28T14:44:32.951Z,100395.30
2023-02-28T14:47:07.730Z,100398.38
2023-02-28T14:49:39.584Z,100397.11
2023-02-28T14:52:10.827Z,100396.39
2023-02-28T14:54:40.343Z,100390.48
2023-02-28T14:57:22.767Z,100391.56
2023-02-28T15:00:04.766Z,100391.97
2023-02-28T15:02:36.258Z,100393.67
2023-02-28T15:05:13.361Z,100393.60
2023-02-28T15:07:41.434Z,100398.53
2023-02-28T15:10:25.566Z,100398.23
2023-02-28T15:12:59.303Z,100397.87
2023-02-28T15:15:40.308Z,100400.50
2023-02-28T15:18:20.938Z,100395.02
2023-02-28T15:20:49.887Z,100395.27
2023-02-28T15:23:20.441Z,100397.41
2023-02-28T15:25:49.336Z,100395.58
2023-02-28T15:28:21.078Z,100393.57
2023-02-28T15:31:01.121Z,100396.96
2023-02-28T15:33:34.684Z,100401.14
2023-02-28T15:36:14.584Z,100405.14
2023-02-28T15:38:43.618Z,100396.92
2023-02-28T15:41:36.254Z,100394.23
2023-02-28T15:44:27.987Z,100393.95
2023-02-28T15:47:20.375Z,100398.02
2023-02-28T15:50:05.261Z,100401.36
2023-02-28T15:52:42.528Z,100406.27
2023-02-28T15:55:22.888Z,100402.30
2023-02-28T15:57:54.197Z,100396.95
2023-02-28T16:00:25.088Z,100393.66
2023-02-28T16:02:53.406Z,100389.84
2023-02-28T16:05:31.475Z,100387.26
2023-02-28T16:08:12.402Z,100387.65
2023-02-28T16:10:40.874Z,100389.25
2023-02-28T16:13:14.978Z,100389.64
2023-02-28T16:15:44.778Z,100387.75
2023-02-28T16:18:14.127Z,100390.73
2023-02-28T16:20:42.483Z,100394.41
2023-02-28T16:23:10.356Z,100395.99
2023-02-28T16:25:41.793Z,100396.55
2023-02-28T16:28:20.576Z,100402.86
2023-02-28T16:30:48.563Z,100406.36
2023-02-28T16:33:16.405Z,100408.46
2023-02-28T16:35:44.329Z,100407.45
2023-02-28T16:38:12.594Z,100407.48
2023-02-28T16:40:40.986Z,100406.64
2023-02-28T16:43:18.019Z,100410.81
2023-02-28T16:45:46.423Z,100415.34
2023-02-28T16:48:17.771Z,100413.62
2023-02-28T16:50:45.800Z,100417.44
2023-02-28T16:53:14.534Z,100425.27
2023-02-28T16:55:42.689Z,100423.36
2023-02-28T16:58:16.345Z,100425.62
2023-02-28T17:00:44.789Z,100431.17
2023-02-28T17:03:33.256Z,100431.50
2023-02-28T17:06:01.986Z,100428.03
2023-02-28T17:08:32.923Z,100427.34
2023-02-28T17:11:01.806Z,100429.08
2023-02-28T17:13:29.844Z,100427.86
2023-02-28T17:15:57.817Z,100425.42
2023-02-28T17:18:27.600Z,100425.23
2023-02-28T17:20:55.510Z,100424.38
2023-02-28T17:23:23.353Z,100425.75
2023-02-28T17:25:57.550Z,100426.95
2023-02-28T17:28:26.033Z,100429.38
2023-02-28T17:30:54.061Z,100428.84
2023-02-28T17:33:22.169Z,100431.62
2023-02-28T17:35:50.119Z,100434.03
2023-02-28T17:38:20.718Z,100431.08
2023-02-28T17:40:48.762Z,100427.61
2023-02-28T17:43:16.815Z,100427.94
2023-02-28T17:45:44.695Z,100427.95
2023-02-28T17:48:13.454Z,100425.50
2023-02-28T17:50:41.876Z,100423.24
2023-02-28T17:53:10.073Z,100422.88
2023-02-28T17:55:38.176Z,100418.70
2023-02-28T17:58:06.236Z,100416.59
2023-02-28T18:00:34.596Z,100417.98
2023-02-28T18:03:02.929Z,100419.34
2023-02-28T18:05:32.351Z,100421.41
2023-02-28T18:08:01.434Z,100420.52
2023-02-28T18:10:34.101Z,100418.23
2023-02-28T18:13:02.097Z,100416.14
2023-02-28T18:15:30.548Z,100419.94
2023-02-28T18:17:58.561Z,100424.61
2023-02-28T18:20:27.068Z,100427.71
2023-02-28T18:22:55.213Z,100431.49
2023-02-28T18:25:23.427Z,100437.36
2023-02-28T18:27:58.065Z,100438.39
2023-02-28T18:30:31.580Z,100440.97
2023-02-28T18:33:01.317Z,100441.29
2023-02-28T18:35:37.541Z,100442.14
2023-02-28T18:38:16.606Z,100441.42
2023-02-28T18:41:02.464Z,100438.28
2023-02-28T18:43:32.138Z,100443.11
2023-02-28T18:46:10.708Z,100447.95
2023-02-28T18:48:39.294Z,100444.98
2023-02-28T18:51:16.300Z,100446.66
2023-02-28T18:53:44.954Z,100452.84
2023-02-28T18:56:14.888Z,100452.95
2023-02-28T18:58:43.456Z,100448.40
2023-02-28T19:01:21.088Z,100451.68
2023-02-28T19:03:50.778Z,100452.33
2023-02-28T19:06:19.669Z,100451.08
2023-02-28T19:08:49.280Z,100451.91
2023-02-28T19:11:18.852Z,100453.45
2023-02-28T19:13:47.514Z,100451.70
2023-02-28T19:16:19.574Z,100454.45
2023-02-28T19:18:49.257Z,100451.48
2023-02-28T19:21:19.437Z,100452.48
2023-02-28T19:23:48.500Z,100455.58
2023-02-28T19:26:22.286Z,100455.73
2023-02-28T19:28:50.561Z,100452.58
2023-02-28T19:31:24.255Z,100450.83
2023-02-28T19:33:53.137Z,100450.27
2023-02-28T19:36:22.602Z,100453.86
2023-02-28T19:38:50.826Z,100454.01
2023-02-28T19:41:19.663Z,100455.73
2023-02-28T19:43:47.910Z,100456.36
2023-02-28T19:46:16.214Z,100454.59
2023-02-28T19:48:44.897Z,100456.65
2023-02-28T19:51:14.051Z,100459.58
2023-02-28T19:53:42.883Z,100457.16
2023-02-28T19:56:11.631Z,100458.52
2023-02-28T19:58:40.048Z,100459.01
2023-02-28T20:01:14.291Z,100458.99
2023-02-28T20:03:42.708Z,100461.75
2023-02-28T20:06:15.217Z,100465.36
2023-02-28T20:08:43.419Z,100465.15
2023-02-28T20:11:15.453Z,100469.11
2023-02-28T20:13:44.682Z,100471.16
2023-02-28T20:16:14.488Z,100472.01
2023-02-28T20:18:44.308Z,100471.81
2023-02-28T20:21:13.533Z,100468.69
2023-02-28T20:23:41.770Z,100467.30
2023-02-28T20:26:10.413Z,100463.86
2023-02-28T20:28:39.801Z,100462.66
2023-02-28T20:31:16.834Z,100462.48
2023-02-28T20:33:46.844Z,100459.72
2023-02-28T20:36:15.918Z,100456.95
2023-02-28T20:38:43.966Z,100456.25
2023-02-28T20:41:13.033Z,100457.79
2023-02-28T20:43:41.481Z,100457.95
2023-02-28T20:46:10.282Z,100458.47
2023-02-28T20:48:40.582Z,100456.54
2023-02-28T20:51:08.675Z,100456.52
2023-02-28T20:53:36.818Z,100456.65
2023-02-28T20:56:08.961Z,100459.54
2023-02-28T20:58:37.790Z,100457.41
2023-02-28T21:01:18.417Z,100460.16
2023-02-28T21:03:52.179Z,100462.76
2023-02-28T21:06:21.577Z,100458.09
2023-02-28T21:08:50.174Z,100454.45
2023-02-28T21:11:25.449Z,100454.62
2023-02-28T21:13:54.411Z,100451.82
2023-02-28T21:16:24.171Z,100451.12
2023-02-28T21:18:55.151Z,100451.99
2023-02-28T21:21:24.778Z,100454.23
2023-02-28T21:23:52.757Z,100456.09
2023-02-28T21:26:22.988Z,100456.59
2023-02-28T21:28:52.036Z,100458.45
2023-02-28T21:31:21.808Z,100463.11
2023-02-28T21:33:50.224Z,100462.21
2023-02-28T21:36:21.091Z,100465.13
2023-02-28T21:38:54.296Z,100467.86
2023-02-28T21:41:24.164Z,100471.45
2023-02-28T21:43:53.176Z,100465.88
2023-02-28T21:46:23.834Z,100467.56
2023-02-28T21:48:52.201Z,100468.53
2023-02-28T21:51:22.725Z,100469.86
2023-02-28T21:53:50.983Z,100468.98
2023-02-28T21:56:24.789Z,100464.64
2023-02-28T21:59:00.456Z,100460.48
2023-02-28T22:01:37.205Z,100459.58
2023-02-28T22:04:08.867Z,100461.11
2023-02-28T22:06:40.979Z,100457.64
2023-02-28T22:09:10.047Z,100462.48
2023-02-28T22:11:39.030Z,100467.60
2023-02-28T22:14:09.029Z,100468.54
2023-02-28T22:16:50.837Z,100463.49
2023-02-28T22:19:20.974Z,100464.34
2023-02-28T22:21:48.926Z,100463.63
2023-02-28T22:24:20.143Z,100466.32
2023-02-28T22:26:49.417Z,100464.39
2023-02-28T22:29:17.439Z,100461.09
2023-02-28T22:31:45.484Z,100463.48
2023-02-28T22:34:13.742Z,100463.98
2023-02-28T22:36:42.777Z,100465.84
2023-02-28T22:39:11.313Z,100475.10
2023-02-28T22:41:39.638Z,100475.61
2023-02-28T22:44:07.805Z,100475.78
2023-02-28T22:46:36.324Z,100475.63
2023-02-28T22:49:06.083Z,100477.35
2023-02-28T22:51:34.946Z,100479.05
2023-02-28T22:54:03.898Z,100481.25
2023-02-28T22:56:32.430Z,100477.64
2023-02-28T22:59:02.028Z,100478.84
2023-02-28T23:01:33.468Z,100480.75
2023-02-28T23:04:01.822Z,100484.52
2023-02-28T23:06:37.741Z,100488.11
2023-02-28T23:09:07.716Z,100492.73
2023-02-28T23:11:40.860Z,100493.91
2023-02-28T23:14:12.752Z,100494.02
2023-02-28T23:16:43.985Z,100488.46
2023-02-28T23:19:16.374Z,100482.02
2023-02-28T23:21:45.780Z,100481.98
2023-02-28T23:24:15.521Z,100484.85
2023-02-28T23:26:46.424Z,100484.98
2023-02-28T23:29:17.549Z,100479.77
2023-02-28T23:31:45.500Z,100482.98
2023-02-28T23:34:15.667Z,100478.81
2023-02-28T23:36:45.975Z,100479.83
2023-02-28T23:39:16.803Z,100480.20
2023-02-28T23:41:45.096Z,100486.20
2023-02-28T23:44:16.907Z,100491.34
2023-02-28T23:46:47.399Z,100491.33
2023-02-28T23:49:16.315Z,100487.19
2023-02-28T23:51:44.182Z,100485.58
2023-02-28T23:54:12.160Z,100483.92
